sensor_id;sensor_type;location;lat;lon;timestamp;P1;durP1;ratioP1;P2;durP2;ratioP2
71566;SDS011;59403;47.456;19.120;2023-05-19T00:00:28;7.40;;;4.07;;
71566;SDS011;59403;47.456;19.120;2023-05-19T00:02:56;6.82;;;4.18;;
71566;SDS011;59403;47.456;19.120;2023-05-19T00:05:24;5.83;;;4.40;;
71566;SDS011;59403;47.456;19.120;2023-05-19T00:07:52;7.65;;;4.28;;
71566;SDS011;59403;47.456;19.120;2023-05-19T00:10:24;6.30;;;4.80;;
71566;SDS011;59403;47.456;19.120;2023-05-19T00:12:54;6.22;;;4.20;;
71566;SDS011;59403;47.456;19.120;2023-05-19T00:15:21;5.68;;;4.05;;
71566;SDS011;59403;47.456;19.120;2023-05-19T00:17:49;6.30;;;4.47;;
71566;SDS011;59403;47.456;19.120;2023-05-19T00:20:17;6.18;;;4.15;;
71566;SDS011;59403;47.456;19.120;2023-05-19T00:22:44;7.20;;;4.68;;
71566;SDS011;59403;47.456;19.120;2023-05-19T00:25:11;8.73;;;4.22;;
71566;SDS011;59403;47.456;19.120;2023-05-19T00:27:38;6.20;;;3.60;;
71566;SDS011;59403;47.456;19.120;2023-05-19T00:30:06;7.00;;;3.97;;
71566;SDS011;59403;47.456;19.120;2023-05-19T00:32:33;6.78;;;3.70;;
71566;SDS011;59403;47.456;19.120;2023-05-19T00:35:00;4.70;;;3.87;;
71566;SDS011;59403;47.456;19.120;2023-05-19T00:37:28;7.30;;;3.87;;
71566;SDS011;59403;47.456;19.120;2023-05-19T00:39:55;5.20;;;3.90;;
71566;SDS011;59403;47.456;19.120;2023-05-19T00:42:23;6.53;;;3.40;;
71566;SDS011;59403;47.456;19.120;2023-05-19T00:44:51;5.18;;;3.87;;
71566;SDS011;59403;47.456;19.120;2023-05-19T00:47:18;7.95;;;4.53;;
71566;SDS011;59403;47.456;19.120;2023-05-19T00:49:45;5.43;;;3.50;;
71566;SDS011;59403;47.456;19.120;2023-05-19T00:52:12;6.15;;;3.65;;
71566;SDS011;59403;47.456;19.120;2023-05-19T00:54:40;6.97;;;4.20;;
71566;SDS011;59403;47.456;19.120;2023-05-19T00:57:08;6.45;;;3.95;;
71566;SDS011;59403;47.456;19.120;2023-05-19T00:59:35;7.25;;;4.43;;
71566;SDS011;59403;47.456;19.120;2023-05-19T01:02:03;8.05;;;3.90;;
71566;SDS011;59403;47.456;19.120;2023-05-19T01:04:31;11.12;;;5.07;;
71566;SDS011;59403;47.456;19.120;2023-05-19T01:07:01;4.70;;;3.57;;
71566;SDS011;59403;47.456;19.120;2023-05-19T01:09:28;5.40;;;3.92;;
71566;SDS011;59403;47.456;19.120;2023-05-19T01:11:57;5.70;;;3.90;;
71566;SDS011;59403;47.456;19.120;2023-05-19T01:14:25;5.65;;;3.42;;
71566;SDS011;59403;47.456;19.120;2023-05-19T01:16:53;7.78;;;3.90;;
71566;SDS011;59403;47.456;19.120;2023-05-19T01:19:51;5.87;;;4.10;;
71566;SDS011;59403;47.456;19.120;2023-05-19T01:25:30;7.07;;;4.32;;
71566;SDS011;59403;47.456;19.120;2023-05-19T01:31:30;6.07;;;4.15;;
71566;SDS011;59403;47.456;19.120;2023-05-19T01:33:58;5.47;;;3.90;;
71566;SDS011;59403;47.456;19.120;2023-05-19T01:36:28;5.65;;;3.65;;
71566;SDS011;59403;47.456;19.120;2023-05-19T01:38:59;8.18;;;4.55;;
71566;SDS011;59403;47.456;19.120;2023-05-19T01:41:27;6.28;;;4.32;;
71566;SDS011;59403;47.456;19.120;2023-05-19T01:43:56;5.20;;;4.05;;
71566;SDS011;59403;47.456;19.120;2023-05-19T01:46:24;6.27;;;4.40;;
71566;SDS011;59403;47.456;19.120;2023-05-19T01:48:53;6.07;;;4.45;;
71566;SDS011;59403;47.456;19.120;2023-05-19T01:51:21;7.43;;;4.65;;
71566;SDS011;59403;47.456;19.120;2023-05-19T01:53:47;7.10;;;4.37;;
71566;SDS011;59403;47.456;19.120;2023-05-19T01:56:15;7.15;;;4.35;;
71566;SDS011;59403;47.456;19.120;2023-05-19T01:58:50;5.83;;;4.60;;
71566;SDS011;59403;47.456;19.120;2023-05-19T02:01:25;7.97;;;4.45;;
71566;SDS011;59403;47.456;19.120;2023-05-19T02:04:03;8.90;;;5.05;;
71566;SDS011;59403;47.456;19.120;2023-05-19T02:06:44;7.28;;;4.32;;
71566;SDS011;59403;47.456;19.120;2023-05-19T02:09:17;5.72;;;4.30;;
71566;SDS011;59403;47.456;19.120;2023-05-19T02:11:51;6.73;;;4.40;;
71566;SDS011;59403;47.456;19.120;2023-05-19T02:14:23;7.93;;;4.80;;
71566;SDS011;59403;47.456;19.120;2023-05-19T02:16:54;6.60;;;4.85;;
71566;SDS011;59403;47.456;19.120;2023-05-19T02:19:25;8.18;;;4.85;;
71566;SDS011;59403;47.456;19.120;2023-05-19T02:21:54;6.55;;;4.53;;
71566;SDS011;59403;47.456;19.120;2023-05-19T02:24:21;7.97;;;4.60;;
71566;SDS011;59403;47.456;19.120;2023-05-19T02:26:48;6.97;;;4.07;;
71566;SDS011;59403;47.456;19.120;2023-05-19T02:29:16;8.07;;;4.82;;
71566;SDS011;59403;47.456;19.120;2023-05-19T02:31:43;6.57;;;4.70;;
71566;SDS011;59403;47.456;19.120;2023-05-19T02:34:10;6.75;;;5.03;;
71566;SDS011;59403;47.456;19.120;2023-05-19T02:36:39;8.43;;;4.70;;
71566;SDS011;59403;47.456;19.120;2023-05-19T02:39:07;7.07;;;4.72;;
71566;SDS011;59403;47.456;19.120;2023-05-19T02:41:34;7.40;;;4.68;;
71566;SDS011;59403;47.456;19.120;2023-05-19T02:44:01;7.30;;;4.80;;
71566;SDS011;59403;47.456;19.120;2023-05-19T02:46:28;8.57;;;4.55;;
71566;SDS011;59403;47.456;19.120;2023-05-19T02:48:55;7.00;;;4.80;;
71566;SDS011;59403;47.456;19.120;2023-05-19T02:51:22;7.50;;;4.30;;
71566;SDS011;59403;47.456;19.120;2023-05-19T02:53:51;7.12;;;5.07;;
71566;SDS011;59403;47.456;19.120;2023-05-19T02:56:17;6.05;;;4.40;;
71566;SDS011;59403;47.456;19.120;2023-05-19T02:58:45;5.70;;;4.37;;
71566;SDS011;59403;47.456;19.120;2023-05-19T03:01:12;6.60;;;4.47;;
71566;SDS011;59403;47.456;19.120;2023-05-19T03:03:39;8.73;;;4.68;;
71566;SDS011;59403;47.456;19.120;2023-05-19T03:06:06;9.30;;;4.50;;
71566;SDS011;59403;47.456;19.120;2023-05-19T03:08:33;6.40;;;4.45;;
71566;SDS011;59403;47.456;19.120;2023-05-19T03:11:02;7.05;;;4.55;;
71566;SDS011;59403;47.456;19.120;2023-05-19T03:13:29;5.50;;;4.00;;
71566;SDS011;59403;47.456;19.120;2023-05-19T03:15:56;6.28;;;5.10;;
71566;SDS011;59403;47.456;19.120;2023-05-19T03:18:24;8.00;;;4.90;;
71566;SDS011;59403;47.456;19.120;2023-05-19T03:20:51;6.43;;;4.43;;
71566;SDS011;59403;47.456;19.120;2023-05-19T03:23:19;7.07;;;5.18;;
71566;SDS011;59403;47.456;19.120;2023-05-19T03:25:47;7.80;;;4.77;;
71566;SDS011;59403;47.456;19.120;2023-05-19T03:28:15;7.35;;;4.60;;
71566;SDS011;59403;47.456;19.120;2023-05-19T03:30:42;11.48;;;5.55;;
71566;SDS011;59403;47.456;19.120;2023-05-19T03:33:09;7.68;;;5.00;;
71566;SDS011;59403;47.456;19.120;2023-05-19T03:35:36;7.78;;;5.25;;
71566;SDS011;59403;47.456;19.120;2023-05-19T03:38:03;10.90;;;5.20;;
71566;SDS011;59403;47.456;19.120;2023-05-19T03:40:30;7.40;;;5.60;;
71566;SDS011;59403;47.456;19.120;2023-05-19T03:42:57;7.80;;;5.57;;
71566;SDS011;59403;47.456;19.120;2023-05-19T03:45:26;8.40;;;5.75;;
71566;SDS011;59403;47.456;19.120;2023-05-19T03:47:53;10.07;;;6.03;;
71566;SDS011;59403;47.456;19.120;2023-05-19T03:50:20;6.90;;;5.13;;
71566;SDS011;59403;47.456;19.120;2023-05-19T03:52:48;9.32;;;6.15;;
71566;SDS011;59403;47.456;19.120;2023-05-19T03:55:15;7.35;;;5.75;;
71566;SDS011;59403;47.456;19.120;2023-05-19T03:57:44;8.98;;;5.68;;
71566;SDS011;59403;47.456;19.120;2023-05-19T04:00:11;8.98;;;6.10;;
71566;SDS011;59403;47.456;19.120;2023-05-19T04:02:40;8.93;;;5.67;;
71566;SDS011;59403;47.456;19.120;2023-05-19T04:05:07;8.10;;;5.97;;
71566;SDS011;59403;47.456;19.120;2023-05-19T04:07:34;9.30;;;6.62;;
71566;SDS011;59403;47.456;19.120;2023-05-19T04:10:03;10.45;;;6.55;;
71566;SDS011;59403;47.456;19.120;2023-05-19T04:12:30;9.45;;;6.22;;
71566;SDS011;59403;47.456;19.120;2023-05-19T04:14:57;8.97;;;6.10;;
71566;SDS011;59403;47.456;19.120;2023-05-19T04:17:24;11.82;;;6.80;;
71566;SDS011;59403;47.456;19.120;2023-05-19T04:19:53;9.93;;;6.65;;
71566;SDS011;59403;47.456;19.120;2023-05-19T04:22:20;11.35;;;6.70;;
71566;SDS011;59403;47.456;19.120;2023-05-19T04:24:47;9.57;;;6.75;;
71566;SDS011;59403;47.456;19.120;2023-05-19T04:27:14;11.07;;;6.13;;
71566;SDS011;59403;47.456;19.120;2023-05-19T04:29:41;9.85;;;6.62;;
71566;SDS011;59403;47.456;19.120;2023-05-19T04:32:10;10.02;;;6.68;;
71566;SDS011;59403;47.456;19.120;2023-05-19T04:34:41;8.82;;;6.10;;
71566;SDS011;59403;47.456;19.120;2023-05-19T04:37:11;8.30;;;6.35;;
71566;SDS011;59403;47.456;19.120;2023-05-19T04:39:40;10.07;;;7.03;;
71566;SDS011;59403;47.456;19.120;2023-05-19T04:42:09;9.82;;;6.32;;
71566;SDS011;59403;47.456;19.120;2023-05-19T04:44:37;10.50;;;7.25;;
71566;SDS011;59403;47.456;19.120;2023-05-19T04:47:05;9.40;;;6.57;;
71566;SDS011;59403;47.456;19.120;2023-05-19T04:49:35;12.45;;;7.12;;
71566;SDS011;59403;47.456;19.120;2023-05-19T04:52:04;9.97;;;6.93;;
71566;SDS011;59403;47.456;19.120;2023-05-19T04:54:36;11.85;;;7.12;;
71566;SDS011;59403;47.456;19.120;2023-05-19T04:57:04;11.50;;;8.55;;
71566;SDS011;59403;47.456;19.120;2023-05-19T04:59:31;9.70;;;7.03;;
71566;SDS011;59403;47.456;19.120;2023-05-19T05:01:58;11.55;;;7.95;;
71566;SDS011;59403;47.456;19.120;2023-05-19T05:04:25;13.80;;;7.80;;
71566;SDS011;59403;47.456;19.120;2023-05-19T05:06:52;9.45;;;7.30;;
71566;SDS011;59403;47.456;19.120;2023-05-19T05:09:19;10.75;;;7.72;;
71566;SDS011;59403;47.456;19.120;2023-05-19T05:11:47;10.80;;;7.62;;
71566;SDS011;59403;47.456;19.120;2023-05-19T05:14:15;11.60;;;8.35;;
71566;SDS011;59403;47.456;19.120;2023-05-19T05:16:43;12.27;;;7.73;;
71566;SDS011;59403;47.456;19.120;2023-05-19T05:19:11;12.55;;;7.93;;
71566;SDS011;59403;47.456;19.120;2023-05-19T05:21:38;12.55;;;8.30;;
71566;SDS011;59403;47.456;19.120;2023-05-19T05:24:07;12.50;;;8.73;;
71566;SDS011;59403;47.456;19.120;2023-05-19T05:26:35;12.60;;;8.50;;
71566;SDS011;59403;47.456;19.120;2023-05-19T05:29:04;13.80;;;8.33;;
71566;SDS011;59403;47.456;19.120;2023-05-19T05:31:31;12.57;;;8.50;;
71566;SDS011;59403;47.456;19.120;2023-05-19T05:33:58;15.48;;;9.75;;
71566;SDS011;59403;47.456;19.120;2023-05-19T05:36:25;15.65;;;10.35;;
71566;SDS011;59403;47.456;19.120;2023-05-19T05:38:52;18.98;;;10.70;;
71566;SDS011;59403;47.456;19.120;2023-05-19T05:41:20;15.23;;;10.53;;
71566;SDS011;59403;47.456;19.120;2023-05-19T05:43:46;19.50;;;10.90;;
71566;SDS011;59403;47.456;19.120;2023-05-19T05:46:15;16.80;;;11.38;;
71566;SDS011;59403;47.456;19.120;2023-05-19T05:48:42;16.33;;;11.48;;
71566;SDS011;59403;47.456;19.120;2023-05-19T05:51:09;17.45;;;11.27;;
71566;SDS011;59403;47.456;19.120;2023-05-19T05:53:39;21.80;;;11.43;;
71566;SDS011;59403;47.456;19.120;2023-05-19T05:56:08;18.12;;;11.12;;
71566;SDS011;59403;47.456;19.120;2023-05-19T05:58:36;18.35;;;12.52;;
71566;SDS011;59403;47.456;19.120;2023-05-19T06:01:04;17.83;;;12.10;;
71566;SDS011;59403;47.456;19.120;2023-05-19T06:03:37;18.90;;;12.35;;
71566;SDS011;59403;47.456;19.120;2023-05-19T06:06:05;16.80;;;11.23;;
71566;SDS011;59403;47.456;19.120;2023-05-19T06:08:32;19.10;;;11.27;;
71566;SDS011;59403;47.456;19.120;2023-05-19T06:10:59;16.05;;;11.12;;
71566;SDS011;59403;47.456;19.120;2023-05-19T06:13:32;13.93;;;10.52;;
71566;SDS011;59403;47.456;19.120;2023-05-19T06:15:59;17.48;;;12.25;;
71566;SDS011;59403;47.456;19.120;2023-05-19T06:18:26;18.37;;;11.97;;
71566;SDS011;59403;47.456;19.120;2023-05-19T06:20:54;22.98;;;13.75;;
71566;SDS011;59403;47.456;19.120;2023-05-19T06:23:21;18.98;;;13.00;;
71566;SDS011;59403;47.456;19.120;2023-05-19T06:25:48;17.52;;;12.45;;
71566;SDS011;59403;47.456;19.120;2023-05-19T06:28:15;16.75;;;11.98;;
71566;SDS011;59403;47.456;19.120;2023-05-19T06:30:41;18.63;;;12.70;;
71566;SDS011;59403;47.456;19.120;2023-05-19T06:33:08;19.37;;;12.15;;
71566;SDS011;59403;47.456;19.120;2023-05-19T06:35:35;16.12;;;12.07;;
71566;SDS011;59403;47.456;19.120;2023-05-19T06:38:03;20.67;;;11.65;;
71566;SDS011;59403;47.456;19.120;2023-05-19T06:40:30;16.62;;;12.00;;
71566;SDS011;59403;47.456;19.120;2023-05-19T06:42:57;17.83;;;12.60;;
71566;SDS011;59403;47.456;19.120;2023-05-19T06:45:24;18.30;;;11.73;;
71566;SDS011;59403;47.456;19.120;2023-05-19T06:47:51;15.38;;;12.15;;
71566;SDS011;59403;47.456;19.120;2023-05-19T06:50:18;16.95;;;12.30;;
71566;SDS011;59403;47.456;19.120;2023-05-19T06:52:45;17.05;;;11.70;;
71566;SDS011;59403;47.456;19.120;2023-05-19T06:55:13;15.77;;;12.03;;
71566;SDS011;59403;47.456;19.120;2023-05-19T06:57:40;16.98;;;12.55;;
71566;SDS011;59403;47.456;19.120;2023-05-19T07:00:08;17.05;;;11.63;;
71566;SDS011;59403;47.456;19.120;2023-05-19T07:02:37;15.50;;;11.80;;
71566;SDS011;59403;47.456;19.120;2023-05-19T07:05:04;17.40;;;12.40;;
71566;SDS011;59403;47.456;19.120;2023-05-19T07:07:32;19.63;;;11.47;;
71566;SDS011;59403;47.456;19.120;2023-05-19T07:09:59;16.23;;;10.60;;
71566;SDS011;59403;47.456;19.120;2023-05-19T07:12:27;16.05;;;11.32;;
71566;SDS011;59403;47.456;19.120;2023-05-19T07:14:54;15.68;;;11.65;;
71566;SDS011;59403;47.456;19.120;2023-05-19T07:17:21;17.35;;;12.27;;
71566;SDS011;59403;47.456;19.120;2023-05-19T07:19:48;16.03;;;11.07;;
71566;SDS011;59403;47.456;19.120;2023-05-19T07:22:15;15.98;;;12.37;;
71566;SDS011;59403;47.456;19.120;2023-05-19T07:24:42;14.85;;;11.35;;
71566;SDS011;59403;47.456;19.120;2023-05-19T07:27:09;14.63;;;11.05;;
71566;SDS011;59403;47.456;19.120;2023-05-19T07:29:37;18.92;;;12.52;;
71566;SDS011;59403;47.456;19.120;2023-05-19T07:32:04;15.93;;;11.53;;
71566;SDS011;59403;47.456;19.120;2023-05-19T07:34:31;11.70;;;9.50;;
71566;SDS011;59403;47.456;19.120;2023-05-19T07:36:58;13.27;;;10.63;;
71566;SDS011;59403;47.456;19.120;2023-05-19T07:39:26;16.65;;;10.82;;
71566;SDS011;59403;47.456;19.120;2023-05-19T07:41:53;14.32;;;9.90;;
71566;SDS011;59403;47.456;19.120;2023-05-19T07:44:20;14.37;;;9.90;;
71566;SDS011;59403;47.456;19.120;2023-05-19T07:46:49;17.58;;;10.48;;
71566;SDS011;59403;47.456;19.120;2023-05-19T07:49:15;11.75;;;8.98;;
71566;SDS011;59403;47.456;19.120;2023-05-19T07:51:42;10.18;;;7.30;;
71566;SDS011;59403;47.456;19.120;2023-05-19T07:54:09;8.70;;;7.15;;
71566;SDS011;59403;47.456;19.120;2023-05-19T07:56:36;8.93;;;6.30;;
71566;SDS011;59403;47.456;19.120;2023-05-19T07:59:03;11.52;;;7.45;;
71566;SDS011;59403;47.456;19.120;2023-05-19T08:01:32;7.22;;;5.90;;
71566;SDS011;59403;47.456;19.120;2023-05-19T08:04:00;6.70;;;5.43;;
71566;SDS011;59403;47.456;19.120;2023-05-19T08:06:27;7.45;;;5.50;;
71566;SDS011;59403;47.456;19.120;2023-05-19T08:08:55;7.20;;;5.27;;
71566;SDS011;59403;47.456;19.120;2023-05-19T08:11:22;6.55;;;4.75;;
71566;SDS011;59403;47.456;19.120;2023-05-19T08:13:49;7.65;;;5.57;;
71566;SDS011;59403;47.456;19.120;2023-05-19T08:16:16;9.15;;;6.95;;
71566;SDS011;59403;47.456;19.120;2023-05-19T08:18:43;10.98;;;6.97;;
71566;SDS011;59403;47.456;19.120;2023-05-19T08:21:12;9.20;;;7.13;;
71566;SDS011;59403;47.456;19.120;2023-05-19T08:23:38;9.23;;;7.03;;
71566;SDS011;59403;47.456;19.120;2023-05-19T08:26:05;11.15;;;8.38;;
71566;SDS011;59403;47.456;19.120;2023-05-19T08:28:32;11.70;;;8.15;;
71566;SDS011;59403;47.456;19.120;2023-05-19T08:30:59;13.20;;;9.13;;
71566;SDS011;59403;47.456;19.120;2023-05-19T08:33:26;11.10;;;8.67;;
71566;SDS011;59403;47.456;19.120;2023-05-19T08:35:54;12.25;;;8.35;;
71566;SDS011;59403;47.456;19.120;2023-05-19T08:38:23;10.88;;;9.10;;
71566;SDS011;59403;47.456;19.120;2023-05-19T08:40:58;12.68;;;8.75;;
71566;SDS011;59403;47.456;19.120;2023-05-19T08:43:25;9.95;;;8.02;;
71566;SDS011;59403;47.456;19.120;2023-05-19T08:45:55;9.90;;;8.10;;
71566;SDS011;59403;47.456;19.120;2023-05-19T08:48:25;9.52;;;7.70;;
71566;SDS011;59403;47.456;19.120;2023-05-19T08:50:56;9.05;;;7.47;;
71566;SDS011;59403;47.456;19.120;2023-05-19T08:53:52;10.18;;;7.25;;
71566;SDS011;59403;47.456;19.120;2023-05-19T08:56:25;9.10;;;8.20;;
71566;SDS011;59403;47.456;19.120;2023-05-19T08:58:52;9.57;;;7.83;;
71566;SDS011;59403;47.456;19.120;2023-05-19T09:01:23;9.05;;;8.10;;
71566;SDS011;59403;47.456;19.120;2023-05-19T09:03:51;10.30;;;7.47;;
71566;SDS011;59403;47.456;19.120;2023-05-19T09:06:18;8.18;;;7.05;;
71566;SDS011;59403;47.456;19.120;2023-05-19T09:08:48;8.82;;;7.72;;
71566;SDS011;59403;47.456;19.120;2023-05-19T09:11:15;8.63;;;6.60;;
71566;SDS011;59403;47.456;19.120;2023-05-19T09:13:42;9.05;;;8.02;;
71566;SDS011;59403;47.456;19.120;2023-05-19T09:16:10;8.60;;;7.30;;
71566;SDS011;59403;47.456;19.120;2023-05-19T09:18:37;11.60;;;7.30;;
71566;SDS011;59403;47.456;19.120;2023-05-19T09:21:05;9.57;;;7.00;;
71566;SDS011;59403;47.456;19.120;2023-05-19T09:23:32;10.53;;;6.70;;
71566;SDS011;59403;47.456;19.120;2023-05-19T09:26:01;9.68;;;7.22;;
71566;SDS011;59403;47.456;19.120;2023-05-19T09:28:32;10.23;;;7.30;;
71566;SDS011;59403;47.456;19.120;2023-05-19T09:31:00;9.10;;;7.45;;
71566;SDS011;59403;47.456;19.120;2023-05-19T09:33:28;9.32;;;7.57;;
71566;SDS011;59403;47.456;19.120;2023-05-19T09:35:55;7.57;;;6.63;;
71566;SDS011;59403;47.456;19.120;2023-05-19T09:38:22;9.48;;;6.50;;
71566;SDS011;59403;47.456;19.120;2023-05-19T09:40:50;8.85;;;6.82;;
71566;SDS011;59403;47.456;19.120;2023-05-19T09:43:19;9.80;;;7.07;;
71566;SDS011;59403;47.456;19.120;2023-05-19T09:45:46;10.60;;;7.05;;
71566;SDS011;59403;47.456;19.120;2023-05-19T09:48:13;8.03;;;6.73;;
71566;SDS011;59403;47.456;19.120;2023-05-19T09:50:41;9.02;;;7.15;;
71566;SDS011;59403;47.456;19.120;2023-05-19T09:53:11;10.43;;;6.37;;
71566;SDS011;59403;47.456;19.120;2023-05-19T09:59:03;9.85;;;7.62;;
71566;SDS011;59403;47.456;19.120;2023-05-19T10:01:31;8.03;;;6.70;;
71566;SDS011;59403;47.456;19.120;2023-05-19T10:04:00;8.80;;;6.22;;
71566;SDS011;59403;47.456;19.120;2023-05-19T10:06:28;8.05;;;7.25;;
71566;SDS011;59403;47.456;19.120;2023-05-19T10:12:20;10.00;;;6.60;;
71566;SDS011;59403;47.456;19.120;2023-05-19T10:15:33;8.30;;;5.90;;
71566;SDS011;59403;47.456;19.120;2023-05-19T10:18:02;6.87;;;6.22;;
71566;SDS011;59403;47.456;19.120;2023-05-19T10:20:29;6.90;;;6.22;;
71566;SDS011;59403;47.456;19.120;2023-05-19T10:23:11;6.78;;;6.07;;
71566;SDS011;59403;47.456;19.120;2023-05-19T10:25:38;7.20;;;6.10;;
71566;SDS011;59403;47.456;19.120;2023-05-19T10:28:07;6.23;;;5.27;;
71566;SDS011;59403;47.456;19.120;2023-05-19T10:30:39;5.57;;;4.97;;
71566;SDS011;59403;47.456;19.120;2023-05-19T10:33:08;6.40;;;5.80;;
71566;SDS011;59403;47.456;19.120;2023-05-19T10:35:41;5.70;;;5.18;;
71566;SDS011;59403;47.456;19.120;2023-05-19T10:38:26;5.85;;;5.00;;
71566;SDS011;59403;47.456;19.120;2023-05-19T10:41:01;5.70;;;4.83;;
71566;SDS011;59403;47.456;19.120;2023-05-19T10:43:43;5.45;;;4.37;;
71566;SDS011;59403;47.456;19.120;2023-05-19T10:46:23;6.22;;;5.45;;
71566;SDS011;59403;47.456;19.120;2023-05-19T10:48:51;6.57;;;5.20;;
71566;SDS011;59403;47.456;19.120;2023-05-19T10:51:19;7.85;;;5.85;;
71566;SDS011;59403;47.456;19.120;2023-05-19T10:53:46;7.00;;;5.40;;
71566;SDS011;59403;47.456;19.120;2023-05-19T10:56:28;6.70;;;4.95;;
71566;SDS011;59403;47.456;19.120;2023-05-19T11:01:57;5.65;;;4.70;;
71566;SDS011;59403;47.456;19.120;2023-05-19T11:04:37;6.47;;;4.68;;
71566;SDS011;59403;47.456;19.120;2023-05-19T11:07:05;6.40;;;4.77;;
71566;SDS011;59403;47.456;19.120;2023-05-19T11:09:37;9.52;;;4.80;;
71566;SDS011;59403;47.456;19.120;2023-05-19T11:12:09;5.70;;;5.10;;
71566;SDS011;59403;47.456;19.120;2023-05-19T11:14:36;6.80;;;5.05;;
71566;SDS011;59403;47.456;19.120;2023-05-19T11:17:05;5.55;;;4.97;;
71566;SDS011;59403;47.456;19.120;2023-05-19T11:19:39;6.40;;;4.63;;
71566;SDS011;59403;47.456;19.120;2023-05-19T11:22:21;5.55;;;4.45;;
71566;SDS011;59403;47.456;19.120;2023-05-19T11:25:05;6.78;;;4.62;;
71566;SDS011;59403;47.456;19.120;2023-05-19T11:27:34;6.07;;;5.00;;
71566;SDS011;59403;47.456;19.120;2023-05-19T11:30:12;8.82;;;4.97;;
71566;SDS011;59403;47.456;19.120;2023-05-19T11:32:46;8.63;;;5.03;;
71566;SDS011;59403;47.456;19.120;2023-05-19T11:35:16;5.07;;;4.43;;
71566;SDS011;59403;47.456;19.120;2023-05-19T11:37:45;5.43;;;4.93;;
71566;SDS011;59403;47.456;19.120;2023-05-19T11:40:13;4.95;;;4.45;;
71566;SDS011;59403;47.456;19.120;2023-05-19T11:42:41;6.57;;;4.68;;
71566;SDS011;59403;47.456;19.120;2023-05-19T11:45:09;5.17;;;4.23;;
71566;SDS011;59403;47.456;19.120;2023-05-19T11:47:36;4.50;;;4.10;;
71566;SDS011;59403;47.456;19.120;2023-05-19T11:50:04;5.65;;;4.62;;
71566;SDS011;59403;47.456;19.120;2023-05-19T11:52:32;5.10;;;4.57;;
71566;SDS011;59403;47.456;19.120;2023-05-19T11:54:59;4.00;;;3.50;;
71566;SDS011;59403;47.456;19.120;2023-05-19T11:57:27;4.60;;;3.87;;
71566;SDS011;59403;47.456;19.120;2023-05-19T11:59:54;5.35;;;4.15;;
71566;SDS011;59403;47.456;19.120;2023-05-19T12:02:21;6.50;;;4.87;;
71566;SDS011;59403;47.456;19.120;2023-05-19T12:04:50;5.75;;;4.20;;
71566;SDS011;59403;47.456;19.120;2023-05-19T12:07:19;4.93;;;4.43;;
71566;SDS011;59403;47.456;19.120;2023-05-19T12:09:48;5.80;;;3.93;;
71566;SDS011;59403;47.456;19.120;2023-05-19T12:12:17;5.70;;;4.62;;
71566;SDS011;59403;47.456;19.120;2023-05-19T12:14:45;5.65;;;4.45;;
71566;SDS011;59403;47.456;19.120;2023-05-19T12:17:13;6.10;;;3.95;;
71566;SDS011;59403;47.456;19.120;2023-05-19T12:19:42;4.45;;;3.90;;
71566;SDS011;59403;47.456;19.120;2023-05-19T12:22:10;4.37;;;3.97;;
71566;SDS011;59403;47.456;19.120;2023-05-19T12:24:39;5.95;;;4.00;;
71566;SDS011;59403;47.456;19.120;2023-05-19T12:27:09;4.90;;;4.37;;
71566;SDS011;59403;47.456;19.120;2023-05-19T12:29:37;8.25;;;3.87;;
71566;SDS011;59403;47.456;19.120;2023-05-19T12:32:06;6.75;;;4.32;;
71566;SDS011;59403;47.456;19.120;2023-05-19T12:34:34;6.27;;;4.33;;
71566;SDS011;59403;47.456;19.120;2023-05-19T12:37:02;5.70;;;4.35;;
71566;SDS011;59403;47.456;19.120;2023-05-19T12:39:29;5.85;;;4.03;;
71566;SDS011;59403;47.456;19.120;2023-05-19T12:42:02;4.60;;;3.92;;
71566;SDS011;59403;47.456;19.120;2023-05-19T12:44:35;4.80;;;4.07;;
71566;SDS011;59403;47.456;19.120;2023-05-19T12:47:03;5.73;;;4.20;;
71566;SDS011;59403;47.456;19.120;2023-05-19T12:49:31;5.85;;;4.03;;
71566;SDS011;59403;47.456;19.120;2023-05-19T12:51:59;4.93;;;4.15;;
71566;SDS011;59403;47.456;19.120;2023-05-19T12:54:27;5.90;;;3.90;;
71566;SDS011;59403;47.456;19.120;2023-05-19T12:56:58;4.40;;;4.00;;
71566;SDS011;59403;47.456;19.120;2023-05-19T12:59:26;7.20;;;3.93;;
71566;SDS011;59403;47.456;19.120;2023-05-19T13:01:56;5.22;;;3.78;;
71566;SDS011;59403;47.456;19.120;2023-05-19T13:04:23;4.85;;;4.18;;
71566;SDS011;59403;47.456;19.120;2023-05-19T13:06:50;4.30;;;3.90;;
71566;SDS011;59403;47.456;19.120;2023-05-19T13:09:18;4.95;;;3.50;;
71566;SDS011;59403;47.456;19.120;2023-05-19T13:11:45;4.93;;;3.23;;
71566;SDS011;59403;47.456;19.120;2023-05-19T13:14:15;4.93;;;3.75;;
71566;SDS011;59403;47.456;19.120;2023-05-19T13:16:44;7.12;;;4.05;;
71566;SDS011;59403;47.456;19.120;2023-05-19T13:19:12;3.92;;;3.22;;
71566;SDS011;59403;47.456;19.120;2023-05-19T13:21:39;4.22;;;3.60;;
71566;SDS011;59403;47.456;19.120;2023-05-19T13:24:06;5.00;;;3.27;;
71566;SDS011;59403;47.456;19.120;2023-05-19T13:26:35;3.87;;;3.08;;
71566;SDS011;59403;47.456;19.120;2023-05-19T13:29:03;5.15;;;4.20;;
71566;SDS011;59403;47.456;19.120;2023-05-19T13:31:30;6.32;;;4.07;;
71566;SDS011;59403;47.456;19.120;2023-05-19T13:33:58;5.70;;;3.95;;
71566;SDS011;59403;47.456;19.120;2023-05-19T13:36:25;5.50;;;3.47;;
71566;SDS011;59403;47.456;19.120;2023-05-19T13:38:52;6.62;;;3.65;;
71566;SDS011;59403;47.456;19.120;2023-05-19T13:41:21;4.25;;;3.85;;
71566;SDS011;59403;47.456;19.120;2023-05-19T13:43:50;5.22;;;3.62;;
71566;SDS011;59403;47.456;19.120;2023-05-19T13:46:17;3.37;;;3.08;;
71566;SDS011;59403;47.456;19.120;2023-05-19T13:48:44;4.97;;;3.53;;
71566;SDS011;59403;47.456;19.120;2023-05-19T13:51:12;3.85;;;3.08;;
71566;SDS011;59403;47.456;19.120;2023-05-19T13:53:39;7.05;;;4.00;;
71566;SDS011;59403;47.456;19.120;2023-05-19T13:56:11;5.43;;;3.67;;
71566;SDS011;59403;47.456;19.120;2023-05-19T13:58:38;6.25;;;3.80;;
71566;SDS011;59403;47.456;19.120;2023-05-19T14:01:05;4.97;;;3.53;;
71566;SDS011;59403;47.456;19.120;2023-05-19T14:03:32;10.77;;;3.78;;
71566;SDS011;59403;47.456;19.120;2023-05-19T14:05:59;4.15;;;3.80;;
71566;SDS011;59403;47.456;19.120;2023-05-19T14:08:27;9.32;;;4.18;;
71566;SDS011;59403;47.456;19.120;2023-05-19T14:10:54;20.25;;;4.80;;
71566;SDS011;59403;47.456;19.120;2023-05-19T14:13:21;6.27;;;3.07;;
71566;SDS011;59403;47.456;19.120;2023-05-19T14:15:51;7.68;;;3.28;;
71566;SDS011;59403;47.456;19.120;2023-05-19T14:18:18;9.25;;;3.40;;
71566;SDS011;59403;47.456;19.120;2023-05-19T14:20:47;6.07;;;3.33;;
71566;SDS011;59403;47.456;19.120;2023-05-19T14:23:14;4.82;;;3.67;;
71566;SDS011;59403;47.456;19.120;2023-05-19T14:25:42;7.80;;;3.03;;
71566;SDS011;59403;47.456;19.120;2023-05-19T14:28:10;6.47;;;3.55;;
71566;SDS011;59403;47.456;19.120;2023-05-19T14:30:37;9.95;;;4.00;;
71566;SDS011;59403;47.456;19.120;2023-05-19T14:33:04;6.60;;;3.30;;
71566;SDS011;59403;47.456;19.120;2023-05-19T14:35:31;6.37;;;3.90;;
71566;SDS011;59403;47.456;19.120;2023-05-19T14:37:58;10.13;;;4.03;;
71566;SDS011;59403;47.456;19.120;2023-05-19T14:40:25;6.85;;;3.87;;
71566;SDS011;59403;47.456;19.120;2023-05-19T14:42:53;6.87;;;3.03;;
71566;SDS011;59403;47.456;19.120;2023-05-19T14:45:20;5.00;;;3.47;;
71566;SDS011;59403;47.456;19.120;2023-05-19T14:47:47;8.38;;;3.80;;
71566;SDS011;59403;47.456;19.120;2023-05-19T14:50:14;5.10;;;3.23;;
71566;SDS011;59403;47.456;19.120;2023-05-19T14:52:40;7.55;;;3.50;;